sensor_id;sensor_type;location;lat;lon;timestamp;P1;durP1;ratioP1;P2;durP2;ratioP2
78561;SDS011;68963;52.138;5.446;2023-07-02T00:00:06;8.93;;;3.13;;
78561;SDS011;68963;52.138;5.446;2023-07-02T00:02:37;11.10;;;3.15;;
78561;SDS011;68963;52.138;5.446;2023-07-02T00:05:04;8.52;;;3.13;;
78561;SDS011;68963;52.138;5.446;2023-07-02T00:07:33;9.60;;;3.58;;
78561;SDS011;68963;52.138;5.446;2023-07-02T00:10:03;8.15;;;3.60;;
78561;SDS011;68963;52.138;5.446;2023-07-02T00:12:30;9.13;;;3.53;;
78561;SDS011;68963;52.138;5.446;2023-07-02T00:14:57;9.65;;;3.67;;
78561;SDS011;68963;52.138;5.446;2023-07-02T00:17:23;9.77;;;3.60;;
78561;SDS011;68963;52.138;5.446;2023-07-02T00:19:51;10.50;;;3.60;;
78561;SDS011;68963;52.138;5.446;2023-07-02T00:22:19;13.30;;;3.65;;
78561;SDS011;68963;52.138;5.446;2023-07-02T00:24:46;10.20;;;3.53;;
78561;SDS011;68963;52.138;5.446;2023-07-02T00:27:22;11.05;;;3.83;;
78561;SDS011;68963;52.138;5.446;2023-07-02T00:29:49;11.40;;;3.90;;
78561;SDS011;68963;52.138;5.446;2023-07-02T00:32:15;8.75;;;3.58;;
78561;SDS011;68963;52.138;5.446;2023-07-02T00:34:42;9.50;;;3.80;;
78561;SDS011;68963;52.138;5.446;2023-07-02T00:37:09;8.65;;;3.53;;
78561;SDS011;68963;52.138;5.446;2023-07-02T00:39:38;8.82;;;3.80;;
78561;SDS011;68963;52.138;5.446;2023-07-02T00:42:06;9.52;;;3.53;;
78561;SDS011;68963;52.138;5.446;2023-07-02T00:44:34;12.15;;;4.00;;
78561;SDS011;68963;52.138;5.446;2023-07-02T00:47:10;11.10;;;4.30;;
78561;SDS011;68963;52.138;5.446;2023-07-02T00:49:38;10.98;;;3.88;;
78561;SDS011;68963;52.138;5.446;2023-07-02T00:52:06;11.77;;;3.88;;
78561;SDS011;68963;52.138;5.446;2023-07-02T00:54:35;11.85;;;3.92;;
78561;SDS011;68963;52.138;5.446;2023-07-02T00:57:02;12.50;;;4.05;;
78561;SDS011;68963;52.138;5.446;2023-07-02T00:59:32;11.75;;;4.13;;
78561;SDS011;68963;52.138;5.446;2023-07-02T01:02:04;12.23;;;3.92;;
78561;SDS011;68963;52.138;5.446;2023-07-02T01:04:31;11.73;;;4.32;;
78561;SDS011;68963;52.138;5.446;2023-07-02T01:06:58;13.35;;;4.50;;
78561;SDS011;68963;52.138;5.446;2023-07-02T01:09:25;15.45;;;4.88;;
78561;SDS011;68963;52.138;5.446;2023-07-02T01:14:25;16.75;;;4.60;;
78561;SDS011;68963;52.138;5.446;2023-07-02T01:16:55;14.38;;;4.32;;
78561;SDS011;68963;52.138;5.446;2023-07-02T01:22:23;14.35;;;4.57;;
78561;SDS011;68963;52.138;5.446;2023-07-02T01:24:52;13.55;;;4.28;;
78561;SDS011;68963;52.138;5.446;2023-07-02T01:27:20;12.80;;;4.68;;
78561;SDS011;68963;52.138;5.446;2023-07-02T01:29:50;12.27;;;4.60;;
78561;SDS011;68963;52.138;5.446;2023-07-02T01:32:18;12.48;;;3.95;;
78561;SDS011;68963;52.138;5.446;2023-07-02T01:34:45;12.70;;;4.57;;
78561;SDS011;68963;52.138;5.446;2023-07-02T01:37:15;12.55;;;4.40;;
78561;SDS011;68963;52.138;5.446;2023-07-02T01:39:45;13.13;;;4.43;;
78561;SDS011;68963;52.138;5.446;2023-07-02T01:42:16;15.02;;;4.50;;
78561;SDS011;68963;52.138;5.446;2023-07-02T01:44:46;12.50;;;4.40;;
78561;SDS011;68963;52.138;5.446;2023-07-02T01:47:17;14.13;;;5.25;;
78561;SDS011;68963;52.138;5.446;2023-07-02T01:49:46;13.10;;;5.13;;
78561;SDS011;68963;52.138;5.446;2023-07-02T01:52:13;15.32;;;4.60;;
78561;SDS011;68963;52.138;5.446;2023-07-02T01:54:39;14.82;;;5.00;;
78561;SDS011;68963;52.138;5.446;2023-07-02T01:57:06;10.63;;;4.60;;
78561;SDS011;68963;52.138;5.446;2023-07-02T01:59:33;15.32;;;4.88;;
78561;SDS011;68963;52.138;5.446;2023-07-02T02:01:59;15.63;;;5.13;;
78561;SDS011;68963;52.138;5.446;2023-07-02T02:04:26;14.38;;;4.60;;
78561;SDS011;68963;52.138;5.446;2023-07-02T02:06:53;15.82;;;4.65;;
78561;SDS011;68963;52.138;5.446;2023-07-02T02:09:20;17.92;;;5.07;;
78561;SDS011;68963;52.138;5.446;2023-07-02T02:11:50;15.40;;;4.70;;
78561;SDS011;68963;52.138;5.446;2023-07-02T02:14:18;17.70;;;5.30;;
78561;SDS011;68963;52.138;5.446;2023-07-02T02:16:45;13.80;;;4.88;;
78561;SDS011;68963;52.138;5.446;2023-07-02T02:19:12;16.08;;;5.43;;
78561;SDS011;68963;52.138;5.446;2023-07-02T02:21:41;12.73;;;4.55;;
78561;SDS011;68963;52.138;5.446;2023-07-02T02:24:08;13.05;;;4.75;;
78561;SDS011;68963;52.138;5.446;2023-07-02T02:26:35;17.85;;;4.97;;
78561;SDS011;68963;52.138;5.446;2023-07-02T02:29:01;13.77;;;5.13;;
78561;SDS011;68963;52.138;5.446;2023-07-02T02:31:28;16.73;;;5.25;;
78561;SDS011;68963;52.138;5.446;2023-07-02T02:33:55;16.20;;;5.32;;
78561;SDS011;68963;52.138;5.446;2023-07-02T02:36:22;14.77;;;5.28;;
78561;SDS011;68963;52.138;5.446;2023-07-02T02:38:48;17.00;;;5.40;;
78561;SDS011;68963;52.138;5.446;2023-07-02T02:41:15;18.33;;;5.18;;
78561;SDS011;68963;52.138;5.446;2023-07-02T02:43:42;20.77;;;5.28;;
78561;SDS011;68963;52.138;5.446;2023-07-02T02:46:10;14.63;;;5.03;;
78561;SDS011;68963;52.138;5.446;2023-07-02T02:48:38;15.75;;;4.90;;
78561;SDS011;68963;52.138;5.446;2023-07-02T02:51:04;13.35;;;5.00;;
78561;SDS011;68963;52.138;5.446;2023-07-02T02:53:31;16.13;;;5.47;;
78561;SDS011;68963;52.138;5.446;2023-07-02T02:55:58;16.05;;;5.20;;
78561;SDS011;68963;52.138;5.446;2023-07-02T02:58:24;16.90;;;5.47;;
78561;SDS011;68963;52.138;5.446;2023-07-02T03:00:51;18.20;;;5.40;;
78561;SDS011;68963;52.138;5.446;2023-07-02T03:03:18;18.17;;;5.25;;
78561;SDS011;68963;52.138;5.446;2023-07-02T03:05:46;16.15;;;5.32;;
78561;SDS011;68963;52.138;5.446;2023-07-02T03:08:14;17.33;;;5.20;;
78561;SDS011;68963;52.138;5.446;2023-07-02T03:10:41;17.77;;;5.40;;
78561;SDS011;68963;52.138;5.446;2023-07-02T03:13:08;16.75;;;5.65;;
78561;SDS011;68963;52.138;5.446;2023-07-02T03:15:34;14.77;;;5.35;;
78561;SDS011;68963;52.138;5.446;2023-07-02T03:18:01;14.50;;;5.28;;
78561;SDS011;68963;52.138;5.446;2023-07-02T03:20:28;20.55;;;5.40;;
78561;SDS011;68963;52.138;5.446;2023-07-02T03:22:55;15.93;;;5.85;;
78561;SDS011;68963;52.138;5.446;2023-07-02T03:25:21;15.60;;;5.60;;
78561;SDS011;68963;52.138;5.446;2023-07-02T03:27:48;20.00;;;5.32;;
78561;SDS011;68963;52.138;5.446;2023-07-02T03:30:15;14.70;;;5.28;;
78561;SDS011;68963;52.138;5.446;2023-07-02T03:32:41;19.27;;;5.90;;
78561;SDS011;68963;52.138;5.446;2023-07-02T03:35:08;17.50;;;5.28;;
78561;SDS011;68963;52.138;5.446;2023-07-02T03:37:35;15.45;;;5.13;;
78561;SDS011;68963;52.138;5.446;2023-07-02T03:40:02;16.52;;;5.80;;
78561;SDS011;68963;52.138;5.446;2023-07-02T03:42:29;16.27;;;5.60;;
78561;SDS011;68963;52.138;5.446;2023-07-02T03:44:55;14.70;;;5.47;;
78561;SDS011;68963;52.138;5.446;2023-07-02T03:47:22;17.15;;;5.20;;
78561;SDS011;68963;52.138;5.446;2023-07-02T03:49:49;16.00;;;5.65;;
78561;SDS011;68963;52.138;5.446;2023-07-02T03:52:15;13.93;;;5.53;;
78561;SDS011;68963;52.138;5.446;2023-07-02T03:54:42;16.85;;;5.10;;
78561;SDS011;68963;52.138;5.446;2023-07-02T03:57:08;16.08;;;5.20;;
78561;SDS011;68963;52.138;5.446;2023-07-02T03:59:35;16.15;;;5.22;;
78561;SDS011;68963;52.138;5.446;2023-07-02T04:02:02;15.90;;;5.95;;
78561;SDS011;68963;52.138;5.446;2023-07-02T04:04:29;17.42;;;5.63;;
78561;SDS011;68963;52.138;5.446;2023-07-02T04:06:56;17.02;;;5.85;;
78561;SDS011;68963;52.138;5.446;2023-07-02T04:09:22;17.45;;;5.68;;
78561;SDS011;68963;52.138;5.446;2023-07-02T04:11:49;17.38;;;5.97;;
78561;SDS011;68963;52.138;5.446;2023-07-02T04:14:15;19.13;;;5.93;;
78561;SDS011;68963;52.138;5.446;2023-07-02T04:16:43;21.20;;;5.45;;
78561;SDS011;68963;52.138;5.446;2023-07-02T04:19:13;17.63;;;5.55;;
78561;SDS011;68963;52.138;5.446;2023-07-02T04:21:42;16.95;;;5.60;;
78561;SDS011;68963;52.138;5.446;2023-07-02T04:24:09;17.17;;;5.47;;
78561;SDS011;68963;52.138;5.446;2023-07-02T04:26:36;15.48;;;5.30;;
78561;SDS011;68963;52.138;5.446;2023-07-02T04:29:22;17.00;;;5.47;;
78561;SDS011;68963;52.138;5.446;2023-07-02T04:31:49;16.85;;;5.32;;
78561;SDS011;68963;52.138;5.446;2023-07-02T04:34:16;18.38;;;5.50;;
78561;SDS011;68963;52.138;5.446;2023-07-02T04:36:43;16.75;;;5.60;;
78561;SDS011;68963;52.138;5.446;2023-07-02T04:39:09;16.02;;;5.25;;
78561;SDS011;68963;52.138;5.446;2023-07-02T04:41:37;18.42;;;6.03;;
78561;SDS011;68963;52.138;5.446;2023-07-02T04:44:03;17.60;;;5.10;;
78561;SDS011;68963;52.138;5.446;2023-07-02T04:46:30;17.35;;;5.30;;
78561;SDS011;68963;52.138;5.446;2023-07-02T04:48:57;19.25;;;5.72;;
78561;SDS011;68963;52.138;5.446;2023-07-02T04:51:24;18.98;;;5.32;;
78561;SDS011;68963;52.138;5.446;2023-07-02T04:53:50;19.35;;;5.90;;
78561;SDS011;68963;52.138;5.446;2023-07-02T04:56:17;18.80;;;5.53;;
78561;SDS011;68963;52.138;5.446;2023-07-02T04:58:44;20.23;;;6.07;;
78561;SDS011;68963;52.138;5.446;2023-07-02T05:01:10;13.77;;;5.40;;
78561;SDS011;68963;52.138;5.446;2023-07-02T05:03:37;20.58;;;6.03;;
78561;SDS011;68963;52.138;5.446;2023-07-02T05:06:05;17.52;;;5.13;;
78561;SDS011;68963;52.138;5.446;2023-07-02T05:08:31;17.58;;;5.85;;
78561;SDS011;68963;52.138;5.446;2023-07-02T05:10:58;18.55;;;5.78;;
78561;SDS011;68963;52.138;5.446;2023-07-02T05:13:24;18.00;;;5.65;;
78561;SDS011;68963;52.138;5.446;2023-07-02T05:15:51;15.23;;;5.70;;
78561;SDS011;68963;52.138;5.446;2023-07-02T05:18:18;16.63;;;5.63;;
78561;SDS011;68963;52.138;5.446;2023-07-02T05:20:44;20.98;;;5.93;;
78561;SDS011;68963;52.138;5.446;2023-07-02T05:23:12;21.30;;;6.80;;
78561;SDS011;68963;52.138;5.446;2023-07-02T05:25:38;18.10;;;5.97;;
78561;SDS011;68963;52.138;5.446;2023-07-02T05:28:05;18.40;;;5.65;;
78561;SDS011;68963;52.138;5.446;2023-07-02T05:30:31;19.15;;;5.53;;
78561;SDS011;68963;52.138;5.446;2023-07-02T05:32:58;19.65;;;6.43;;
78561;SDS011;68963;52.138;5.446;2023-07-02T05:35:24;22.38;;;5.55;;
78561;SDS011;68963;52.138;5.446;2023-07-02T05:37:51;16.95;;;5.65;;
78561;SDS011;68963;52.138;5.446;2023-07-02T05:40:19;19.85;;;6.03;;
78561;SDS011;68963;52.138;5.446;2023-07-02T05:42:45;15.65;;;5.00;;
78561;SDS011;68963;52.138;5.446;2023-07-02T05:45:12;19.88;;;5.68;;
78561;SDS011;68963;52.138;5.446;2023-07-02T05:47:39;19.38;;;5.70;;
78561;SDS011;68963;52.138;5.446;2023-07-02T05:50:07;17.80;;;5.25;;
78561;SDS011;68963;52.138;5.446;2023-07-02T05:52:34;22.95;;;5.45;;
78561;SDS011;68963;52.138;5.446;2023-07-02T05:55:00;19.08;;;5.85;;
78561;SDS011;68963;52.138;5.446;2023-07-02T05:57:27;14.13;;;5.25;;
78561;SDS011;68963;52.138;5.446;2023-07-02T05:59:54;19.20;;;5.60;;
78561;SDS011;68963;52.138;5.446;2023-07-02T06:02:21;15.40;;;5.40;;
78561;SDS011;68963;52.138;5.446;2023-07-02T06:04:47;18.08;;;5.38;;
78561;SDS011;68963;52.138;5.446;2023-07-02T06:07:15;16.35;;;5.47;;
78561;SDS011;68963;52.138;5.446;2023-07-02T06:09:41;18.38;;;5.60;;
78561;SDS011;68963;52.138;5.446;2023-07-02T06:12:08;15.48;;;5.13;;
78561;SDS011;68963;52.138;5.446;2023-07-02T06:14:35;16.00;;;5.32;;
78561;SDS011;68963;52.138;5.446;2023-07-02T06:17:02;17.88;;;5.20;;
78561;SDS011;68963;52.138;5.446;2023-07-02T06:19:32;16.38;;;5.00;;
78561;SDS011;68963;52.138;5.446;2023-07-02T06:21:59;15.23;;;4.72;;
78561;SDS011;68963;52.138;5.446;2023-07-02T06:24:26;13.95;;;4.70;;
78561;SDS011;68963;52.138;5.446;2023-07-02T06:26:55;12.63;;;4.88;;
78561;SDS011;68963;52.138;5.446;2023-07-02T06:29:22;16.70;;;5.53;;
78561;SDS011;68963;52.138;5.446;2023-07-02T06:31:50;15.88;;;4.53;;
78561;SDS011;68963;52.138;5.446;2023-07-02T06:34:17;13.75;;;4.80;;
78561;SDS011;68963;52.138;5.446;2023-07-02T06:36:44;14.55;;;4.75;;
78561;SDS011;68963;52.138;5.446;2023-07-02T06:39:34;16.25;;;4.63;;
78561;SDS011;68963;52.138;5.446;2023-07-02T06:42:01;15.23;;;4.55;;
78561;SDS011;68963;52.138;5.446;2023-07-02T06:44:37;13.70;;;4.53;;
78561;SDS011;68963;52.138;5.446;2023-07-02T06:49:46;14.63;;;4.50;;
78561;SDS011;68963;52.138;5.446;2023-07-02T06:52:13;16.73;;;4.47;;
78561;SDS011;68963;52.138;5.446;2023-07-02T06:54:40;12.38;;;3.90;;
78561;SDS011;68963;52.138;5.446;2023-07-02T06:59:35;13.02;;;4.30;;
78561;SDS011;68963;52.138;5.446;2023-07-02T07:02:23;16.10;;;4.60;;
78561;SDS011;68963;52.138;5.446;2023-07-02T07:04:56;15.00;;;4.35;;
78561;SDS011;68963;52.138;5.446;2023-07-02T07:07:27;13.18;;;4.05;;
78561;SDS011;68963;52.138;5.446;2023-07-02T07:09:54;15.77;;;4.32;;
78561;SDS011;68963;52.138;5.446;2023-07-02T07:12:22;12.88;;;4.43;;
78561;SDS011;68963;52.138;5.446;2023-07-02T07:14:49;13.10;;;4.30;;
78561;SDS011;68963;52.138;5.446;2023-07-02T07:17:19;14.88;;;3.88;;
78561;SDS011;68963;52.138;5.446;2023-07-02T07:19:47;15.85;;;4.45;;
78561;SDS011;68963;52.138;5.446;2023-07-02T07:22:16;12.40;;;4.00;;
78561;SDS011;68963;52.138;5.446;2023-07-02T07:25:03;16.38;;;4.22;;
78561;SDS011;68963;52.138;5.446;2023-07-02T07:27:31;12.63;;;3.97;;
78561;SDS011;68963;52.138;5.446;2023-07-02T07:30:19;15.27;;;4.10;;
78561;SDS011;68963;52.138;5.446;2023-07-02T07:32:52;14.43;;;4.43;;
78561;SDS011;68963;52.138;5.446;2023-07-02T07:38:06;13.32;;;3.92;;
78561;SDS011;68963;52.138;5.446;2023-07-02T07:40:40;11.95;;;3.55;;
78561;SDS011;68963;52.138;5.446;2023-07-02T07:43:08;12.98;;;3.50;;
78561;SDS011;68963;52.138;5.446;2023-07-02T07:45:35;14.80;;;3.42;;
78561;SDS011;68963;52.138;5.446;2023-07-02T07:48:12;12.27;;;3.72;;
78561;SDS011;68963;52.138;5.446;2023-07-02T07:50:55;10.30;;;3.42;;
78561;SDS011;68963;52.138;5.446;2023-07-02T07:53:22;17.83;;;3.92;;
78561;SDS011;68963;52.138;5.446;2023-07-02T07:55:58;8.50;;;3.45;;
78561;SDS011;68963;52.138;5.446;2023-07-02T07:58:25;12.73;;;3.47;;
78561;SDS011;68963;52.138;5.446;2023-07-02T08:00:52;11.05;;;3.30;;
78561;SDS011;68963;52.138;5.446;2023-07-02T08:03:49;11.90;;;3.58;;
78561;SDS011;68963;52.138;5.446;2023-07-02T08:06:22;12.38;;;3.35;;
78561;SDS011;68963;52.138;5.446;2023-07-02T08:12:12;9.48;;;3.40;;
78561;SDS011;68963;52.138;5.446;2023-07-02T08:14:39;12.20;;;4.28;;
78561;SDS011;68963;52.138;5.446;2023-07-02T08:17:15;10.55;;;3.75;;
78561;SDS011;68963;52.138;5.446;2023-07-02T08:19:42;12.05;;;3.50;;
78561;SDS011;68963;52.138;5.446;2023-07-02T08:22:09;10.32;;;3.38;;
78561;SDS011;68963;52.138;5.446;2023-07-02T08:24:36;10.15;;;3.35;;
78561;SDS011;68963;52.138;5.446;2023-07-02T08:27:12;13.70;;;3.88;;
78561;SDS011;68963;52.138;5.446;2023-07-02T08:29:40;11.35;;;3.40;;
78561;SDS011;68963;52.138;5.446;2023-07-02T08:32:07;12.70;;;3.78;;
78561;SDS011;68963;52.138;5.446;2023-07-02T08:34:55;12.25;;;3.97;;
78561;SDS011;68963;52.138;5.446;2023-07-02T08:37:51;12.13;;;3.70;;
78561;SDS011;68963;52.138;5.446;2023-07-02T08:40:18;11.18;;;3.60;;
78561;SDS011;68963;52.138;5.446;2023-07-02T08:42:46;12.48;;;3.60;;
78561;SDS011;68963;52.138;5.446;2023-07-02T08:45:20;10.35;;;3.63;;
78561;SDS011;68963;52.138;5.446;2023-07-02T08:48:21;12.45;;;3.67;;
78561;SDS011;68963;52.138;5.446;2023-07-02T08:50:52;12.50;;;3.53;;
78561;SDS011;68963;52.138;5.446;2023-07-02T08:53:24;9.32;;;3.22;;
78561;SDS011;68963;52.138;5.446;2023-07-02T08:56:23;9.55;;;3.20;;
78561;SDS011;68963;52.138;5.446;2023-07-02T08:58:53;10.13;;;3.63;;
78561;SDS011;68963;52.138;5.446;2023-07-02T09:01:19;11.18;;;3.42;;
78561;SDS011;68963;52.138;5.446;2023-07-02T09:04:01;10.35;;;3.47;;
78561;SDS011;68963;52.138;5.446;2023-07-02T09:06:28;11.00;;;3.35;;
78561;SDS011;68963;52.138;5.446;2023-07-02T09:09:13;13.20;;;3.25;;
78561;SDS011;68963;52.138;5.446;2023-07-02T09:11:47;9.52;;;3.65;;
78561;SDS011;68963;52.138;5.446;2023-07-02T09:14:29;9.35;;;3.58;;
78561;SDS011;68963;52.138;5.446;2023-07-02T09:17:20;10.95;;;3.50;;
78561;SDS011;68963;52.138;5.446;2023-07-02T09:19:50;10.02;;;3.60;;
78561;SDS011;68963;52.138;5.446;2023-07-02T09:22:20;12.23;;;3.40;;
78561;SDS011;68963;52.138;5.446;2023-07-02T09:24:57;13.02;;;3.28;;
78561;SDS011;68963;52.138;5.446;2023-07-02T09:27:37;10.77;;;3.38;;
78561;SDS011;68963;52.138;5.446;2023-07-02T09:30:09;12.75;;;3.50;;
78561;SDS011;68963;52.138;5.446;2023-07-02T09:32:46;11.23;;;3.08;;
78561;SDS011;68963;52.138;5.446;2023-07-02T09:35:13;8.73;;;2.78;;
78561;SDS011;68963;52.138;5.446;2023-07-02T09:37:43;10.27;;;3.00;;
78561;SDS011;68963;52.138;5.446;2023-07-02T09:40:20;9.75;;;2.90;;
78561;SDS011;68963;52.138;5.446;2023-07-02T09:42:47;7.45;;;2.47;;
78561;SDS011;68963;52.138;5.446;2023-07-02T09:45:26;10.23;;;2.63;;
78561;SDS011;68963;52.138;5.446;2023-07-02T09:47:54;8.95;;;2.85;;
78561;SDS011;68963;52.138;5.446;2023-07-02T09:50:28;7.30;;;2.60;;
78561;SDS011;68963;52.138;5.446;2023-07-02T09:52:56;6.65;;;2.40;;
78561;SDS011;68963;52.138;5.446;2023-07-02T09:55:23;8.25;;;2.20;;
78561;SDS011;68963;52.138;5.446;2023-07-02T09:57:50;8.50;;;2.78;;
78561;SDS011;68963;52.138;5.446;2023-07-02T10:00:17;6.78;;;2.30;;
78561;SDS011;68963;52.138;5.446;2023-07-02T10:02:47;9.55;;;3.72;;
78561;SDS011;68963;52.138;5.446;2023-07-02T10:05:42;7.30;;;2.45;;
78561;SDS011;68963;52.138;5.446;2023-07-02T10:08:27;6.90;;;2.40;;
78561;SDS011;68963;52.138;5.446;2023-07-02T10:13:39;6.00;;;2.33;;
78561;SDS011;68963;52.138;5.446;2023-07-02T10:16:06;7.32;;;2.10;;
78561;SDS011;68963;52.138;5.446;2023-07-02T10:18:55;6.85;;;2.33;;
78561;SDS011;68963;52.138;5.446;2023-07-02T10:22:02;5.65;;;1.90;;
78561;SDS011;68963;52.138;5.446;2023-07-02T10:24:50;6.00;;;2.20;;
78561;SDS011;68963;52.138;5.446;2023-07-02T10:27:48;8.85;;;2.20;;
78561;SDS011;68963;52.138;5.446;2023-07-02T10:30:32;6.60;;;1.95;;
78561;SDS011;68963;52.138;5.446;2023-07-02T10:33:11;5.45;;;2.03;;
78561;SDS011;68963;52.138;5.446;2023-07-02T10:35:48;5.35;;;1.90;;
78561;SDS011;68963;52.138;5.446;2023-07-02T10:42:02;5.68;;;2.03;;
78561;SDS011;68963;52.138;5.446;2023-07-02T10:47:22;6.88;;;2.30;;
78561;SDS011;68963;52.138;5.446;2023-07-02T10:49:55;6.72;;;2.40;;
78561;SDS011;68963;52.138;5.446;2023-07-02T10:52:36;8.00;;;2.20;;
78561;SDS011;68963;52.138;5.446;2023-07-02T10:55:04;9.82;;;2.70;;
78561;SDS011;68963;52.138;5.446;2023-07-02T10:58:20;6.97;;;2.53;;
78561;SDS011;68963;52.138;5.446;2023-07-02T11:00:52;7.80;;;2.55;;
78561;SDS011;68963;52.138;5.446;2023-07-02T11:03:25;7.07;;;2.40;;
78561;SDS011;68963;52.138;5.446;2023-07-02T11:06:21;8.57;;;2.47;;
78561;SDS011;68963;52.138;5.446;2023-07-02T11:08:48;12.18;;;2.75;;
78561;SDS011;68963;52.138;5.446;2023-07-02T11:11:21;9.18;;;2.42;;
78561;SDS011;68963;52.138;5.446;2023-07-02T11:13:50;8.00;;;2.90;;
78561;SDS011;68963;52.138;5.446;2023-07-02T11:16:19;6.55;;;2.33;;
78561;SDS011;68963;52.138;5.446;2023-07-02T11:18:50;7.18;;;2.40;;
78561;SDS011;68963;52.138;5.446;2023-07-02T11:21:38;8.98;;;2.85;;
78561;SDS011;68963;52.138;5.446;2023-07-02T11:24:33;6.70;;;2.75;;
78561;SDS011;68963;52.138;5.446;2023-07-02T11:27:20;6.00;;;2.20;;
78561;SDS011;68963;52.138;5.446;2023-07-02T11:29:58;7.88;;;2.28;;
78561;SDS011;68963;52.138;5.446;2023-07-02T11:32:49;8.27;;;2.38;;
78561;SDS011;68963;52.138;5.446;2023-07-02T11:35:17;6.30;;;2.63;;
78561;SDS011;68963;52.138;5.446;2023-07-02T11:37:44;6.82;;;2.60;;
78561;SDS011;68963;52.138;5.446;2023-07-02T11:40:12;7.75;;;2.67;;
78561;SDS011;68963;52.138;5.446;2023-07-02T11:43:01;8.43;;;2.75;;
78561;SDS011;68963;52.138;5.446;2023-07-02T11:45:32;7.40;;;2.58;;
78561;SDS011;68963;52.138;5.446;2023-07-02T11:48:09;8.50;;;3.10;;
78561;SDS011;68963;52.138;5.446;2023-07-02T11:50:37;7.68;;;2.75;;
78561;SDS011;68963;52.138;5.446;2023-07-02T11:53:37;7.95;;;2.80;;
78561;SDS011;68963;52.138;5.446;2023-07-02T11:56:05;7.97;;;2.78;;
78561;SDS011;68963;52.138;5.446;2023-07-02T11:58:32;7.68;;;2.75;;
78561;SDS011;68963;52.138;5.446;2023-07-02T12:01:04;8.32;;;2.65;;
78561;SDS011;68963;52.138;5.446;2023-07-02T12:03:32;8.32;;;2.90;;
78561;SDS011;68963;52.138;5.446;2023-07-02T12:05:59;6.85;;;2.22;;
78561;SDS011;68963;52.138;5.446;2023-07-02T12:08:25;7.53;;;2.72;;
78561;SDS011;68963;52.138;5.446;2023-07-02T12:10:52;8.93;;;2.70;;
78561;SDS011;68963;52.138;5.446;2023-07-02T12:13:25;7.88;;;3.20;;
78561;SDS011;68963;52.138;5.446;2023-07-02T12:15:52;7.75;;;2.65;;
78561;SDS011;68963;52.138;5.446;2023-07-02T12:22:14;8.18;;;2.85;;
78561;SDS011;68963;52.138;5.446;2023-07-02T12:24:44;8.02;;;2.97;;
78561;SDS011;68963;52.138;5.446;2023-07-02T12:27:19;7.75;;;2.70;;
78561;SDS011;68963;52.138;5.446;2023-07-02T12:29:49;8.57;;;2.60;;
78561;SDS011;68963;52.138;5.446;2023-07-02T12:32:21;7.68;;;2.60;;
78561;SDS011;68963;52.138;5.446;2023-07-02T12:35:03;6.63;;;2.55;;
78561;SDS011;68963;52.138;5.446;2023-07-02T12:37:32;7.85;;;2.90;;
78561;SDS011;68963;52.138;5.446;2023-07-02T12:40:57;7.80;;;2.67;;
78561;SDS011;68963;52.138;5.446;2023-07-02T12:43:33;8.25;;;2.90;;
78561;SDS011;68963;52.138;5.446;2023-07-02T12:46:03;7.75;;;2.88;;
78561;SDS011;68963;52.138;5.446;2023-07-02T12:48:30;7.07;;;2.78;;
78561;SDS011;68963;52.138;5.446;2023-07-02T12:50:57;8.45;;;3.05;;
78561;SDS011;68963;52.138;5.446;2023-07-02T12:53:36;8.38;;;2.88;;
78561;SDS011;68963;52.138;5.446;2023-07-02T12:56:14;7.78;;;3.10;;
78561;SDS011;68963;52.138;5.446;2023-07-02T12:58:40;7.90;;;3.33;;
78561;SDS011;68963;52.138;5.446;2023-07-02T13:01:17;8.07;;;2.90;;
78561;SDS011;68963;52.138;5.446;2023-07-02T13:03:45;9.40;;;3.05;;
78561;SDS011;68963;52.138;5.446;2023-07-02T13:06:16;8.70;;;3.13;;
78561;SDS011;68963;52.138;5.446;2023-07-02T13:08:47;8.70;;;3.08;;
78561;SDS011;68963;52.138;5.446;2023-07-02T13:11:14;8.23;;;3.15;;
78561;SDS011;68963;52.138;5.446;2023-07-02T13:13:50;10.23;;;3.13;;
78561;SDS011;68963;52.138;5.446;2023-07-02T13:16:17;9.18;;;3.30;;
78561;SDS011;68963;52.138;5.446;2023-07-02T13:18:56;9.40;;;3.03;;
78561;SDS011;68963;52.138;5.446;2023-07-02T13:21:34;8.77;;;3.17;;
78561;SDS011;68963;52.138;5.446;2023-07-02T13:24:01;7.95;;;2.90;;
78561;SDS011;68963;52.138;5.446;2023-07-02T13:26:37;8.68;;;3.00;;
78561;SDS011;68963;52.138;5.446;2023-07-02T13:29:43;8.32;;;3.33;;
78561;SDS011;68963;52.138;5.446;2023-07-02T13:35:32;9.02;;;3.00;;
78561;SDS011;68963;52.138;5.446;2023-07-02T13:37:59;10.20;;;3.40;;
78561;SDS011;68963;52.138;5.446;2023-07-02T13:40:26;8.68;;;3.15;;
78561;SDS011;68963;52.138;5.446;2023-07-02T13:42:53;9.82;;;3.30;;
78561;SDS011;68963;52.138;5.446;2023-07-02T13:45:26;9.05;;;3.13;;
78561;SDS011;68963;52.138;5.446;2023-07-02T13:47:53;9.25;;;3.10;;
78561;SDS011;68963;52.138;5.446;2023-07-02T13:50:32;7.85;;;3.20;;
78561;SDS011;68963;52.138;5.446;2023-07-02T13:52:59;7.97;;;2.88;;
78561;SDS011;68963;52.138;5.446;2023-07-02T13:55:28;7.95;;;3.05;;
78561;SDS011;68963;52.138;5.446;2023-07-02T13:57:59;8.63;;;3.20;;
78561;SDS011;68963;52.138;5.446;2023-07-02T14:00:36;8.15;;;2.97;;
78561;SDS011;68963;52.138;5.446;2023-07-02T14:03:12;7.88;;;3.03;;
78561;SDS011;68963;52.138;5.446;2023-07-02T14:05:42;11.18;;;3.13;;
78561;SDS011;68963;52.138;5.446;2023-07-02T14:08:17;9.50;;;3.30;;
78561;SDS011;68963;52.138;5.446;2023-07-02T14:10:46;12.40;;;5.22;;
78561;SDS011;68963;52.138;5.446;2023-07-02T14:13:14;12.35;;;3.58;;
78561;SDS011;68963;52.138;5.446;2023-07-02T14:15:41;9.43;;;4.00;;
78561;SDS011;68963;52.138;5.446;2023-07-02T14:18:11;7.68;;;3.30;;
78561;SDS011;68963;52.138;5.446;2023-07-02T14:20:37;9.13;;;3.33;;
78561;SDS011;68963;52.138;5.446;2023-07-02T14:23:04;9.32;;;3.08;;
78561;SDS011;68963;52.138;5.446;2023-07-02T14:25:31;8.60;;;3.42;;
78561;SDS011;68963;52.138;5.446;2023-07-02T14:28:18;10.85;;;3.70;;
78561;SDS011;68963;52.138;5.446;2023-07-02T14:30:44;11.32;;;4.15;;
78561;SDS011;68963;52.138;5.446;2023-07-02T14:33:33;12.25;;;4.55;;
78561;SDS011;68963;52.138;5.446;2023-07-02T14:36:08;10.32;;;4.45;;
78561;SDS011;68963;52.138;5.446;2023-07-02T14:38:35;10.13;;;3.88;;
78561;SDS011;68963;52.138;5.446;2023-07-02T14:41:02;8.85;;;3.80;;
78561;SDS011;68963;52.138;5.446;2023-07-02T14:43:31;9.48;;;3.90;;
78561;SDS011;68963;52.138;5.446;2023-07-02T14:45:59;8.20;;;3.80;;
78561;SDS011;68963;52.138;5.446;2023-07-02T14:48:31;16.73;;;6.75;;
78561;SDS011;68963;52.138;5.446;2023-07-02T14:51:07;15.07;;;7.15;;
78561;SDS011;68963;52.138;5.446;2023-07-02T14:53:48;8.15;;;3.60;;
78561;SDS011;68963;52.138;5.446;2023-07-02T14:58:46;9.18;;;3.08;;
78561;SDS011;68963;52.138;5.446;2023-07-02T15:01:18;9.70;;;3.28;;
78561;SDS011;68963;52.138;5.446;2023-07-02T15:03:45;10.68;;;3.30;;
78561;SDS011;68963;52.138;5.446;2023-07-02T15:06:26;7.78;;;3.30;;
78561;SDS011;68963;52.138;5.446;2023-07-02T15:08:55;8.25;;;3.03;;
78561;SDS011;68963;52.138;5.446;2023-07-02T15:11:28;8.68;;;3.30;;
78561;SDS011;68963;52.138;5.446;2023-07-02T15:13:55;8.35;;;3.30;;
78561;SDS011;68963;52.138;5.446;2023-07-02T15:16:22;8.00;;;3.03;;
78561;SDS011;68963;52.138;5.446;2023-07-02T15:18:48;9.43;;;3.33;;
78561;SDS011;68963;52.138;5.446;2023-07-02T15:21:15;7.20;;;2.60;;
78561;SDS011;68963;52.138;5.446;2023-07-02T15:23:48;9.32;;;3.08;;
78561;SDS011;68963;52.138;5.446;2023-07-02T15:26:25;7.22;;;2.85;;
78561;SDS011;68963;52.138;5.446;2023-07-02T15:28:58;7.53;;;2.95;;
78561;SDS011;68963;52.138;5.446;2023-07-02T15:31:47;7.50;;;3.10;;
78561;SDS011;68963;52.138;5.446;2023-07-02T15:34:15;8.10;;;3.05;;
78561;SDS011;68963;52.138;5.446;2023-07-02T15:36:45;8.32;;;2.95;;
78561;SDS011;68963;52.138;5.446;2023-07-02T15:39:15;8.48;;;3.05;;